Time;durP1;ratioP1;P1;durP2;ratioP2;P2;SDS_P1;SDS_P2;PMS_P1;PMS_P2;Temp;Humidity;BMP_temperature;BMP_pressure;BME280_temperature;BME280_humidity;BME280_pressure;Samples;Min_cycle;Max_cycle;Signal;HPM_P1;HPM_P2
2022/08/01 00:00:22;;;;;;;17.35;15.68;;;;;;;23.30;96.26;99938.34;4989480;28;20030;-80
2022/08/01 00:02:47;;;;;;;17.27;15.48;;;;;;;23.79;96.44;100010.06;4988778;28;20050;-80
2022/08/01 00:05:13;;;;;;;17.50;15.70;;;;;;;23.81;97.15;100028.47;4972933;28;20038;-80
2022/08/01 00:07:38;;;;;;;17.92;16.23;;;;;;;23.75;97.83;100032.09;4972743;28;20456;-81
2022/08/01 00:10:05;;;;;;;16.75;15.05;;;;;;;23.57;97.87;100021.09;4972593;28;20042;-82
2022/08/01 00:12:31;;;;;;;18.58;16.65;;;;;;;23.22;98.87;100007.00;4988715;28;20041;-79
2022/08/01 00:14:57;;;;;;;31.10;17.83;;;;;;;23.33;100.00;100027.84;5011314;28;20038;-78
2022/08/01 00:17:22;;;;;;;17.38;15.43;;;;;;;23.22;100.00;100022.81;5010954;28;20497;-78
2022/08/01 00:22:23;;;;;;;16.38;14.55;;;;;;;23.00;98.95;99976.75;5026063;23;20049;-80
2022/08/01 00:24:48;;;;;;;16.35;14.65;;;;;;;23.09;98.71;99990.59;4994518;28;20405;-79
2022/08/01 00:27:14;;;;;;;15.48;13.82;;;;;;;23.39;98.15;100027.69;5012045;28;20488;-77
2022/08/01 00:29:39;;;;;;;17.25;15.45;;;;;;;23.48;97.99;100017.81;5014164;28;20034;-79
2022/08/01 00:32:05;;;;;;;20.65;16.73;;;;;;;23.38;97.93;100022.47;5005658;28;20053;-83
2022/08/01 00:34:31;;;;;;;21.00;16.40;;;;;;;23.42;98.91;100030.25;5000919;28;20124;-79
2022/08/01 00:36:56;;;;;;;20.85;16.85;;;;;;;23.38;99.14;100019.84;5018480;28;20042;-77
2022/08/01 00:39:21;;;;;;;17.70;15.90;;;;;;;23.40;98.33;100031.19;4993639;28;20033;-79
2022/08/01 00:41:47;;;;;;;18.60;16.75;;;;;;;23.08;99.77;100007.28;5011782;28;20046;-80
2022/08/01 00:44:12;;;;;;;19.20;17.30;;;;;;;23.11;100.00;100008.97;5012033;28;20041;-80
2022/08/01 00:46:38;;;;;;;18.83;16.98;;;;;;;22.80;99.85;99969.31;4994479;28;20030;-80
2022/08/01 00:49:03;;;;;;;19.45;17.52;;;;;;;22.75;100.00;100015.03;4994169;28;20096;-80
2022/08/01 00:51:30;;;;;;;19.70;17.75;;;;;;;22.65;100.00;100015.22;5011910;28;20080;-78
2022/08/01 00:53:55;;;;;;;22.48;18.30;;;;;;;22.47;100.00;99975.25;5011801;28;20040;-78
2022/08/01 00:56:23;;;;;;;20.40;18.35;;;;;;;22.34;100.00;99965.81;5011390;28;20038;-78
2022/08/01 00:58:49;;;;;;;21.17;18.77;;;;;;;22.52;100.00;100006.69;5011613;28;20088;-77
2022/08/01 01:01:14;;;;;;;20.48;17.60;;;;;;;22.55;100.00;100006.66;5011562;28;20034;-80
2022/08/01 01:03:40;;;;;;;20.85;18.38;;;;;;;22.67;100.00;100016.03;5011568;28;20113;-81
2022/08/01 01:06:42;;;;;;;20.50;18.40;;;;;;;22.65;100.00;100018.72;5011691;28;20168;-81
2022/08/01 01:09:42;;;;;;;20.92;18.92;;;;;;;22.60;100.00;100015.31;5011262;28;20034;-81
2022/08/01 01:12:17;;;;;;;19.92;18.02;;;;;;;22.50;100.00;100009.38;5011673;28;20034;-81
2022/08/01 01:15:06;;;;;;;22.70;19.02;;;;;;;22.61;100.00;100019.69;5011493;28;20045;-80
2022/08/01 01:17:55;;;;;;;20.95;17.85;;;;;;;22.57;100.00;100021.50;5011408;28;20045;-81
2022/08/01 01:20:26;;;;;;;21.42;17.08;;;;;;;22.59;100.00;100025.00;4966555;28;20051;-81
2022/08/01 01:23:28;;;;;;;19.73;17.17;;;;;;;22.70;100.00;100026.53;4934282;28;20099;-81
2022/08/01 01:26:12;;;;;;;19.60;17.60;;;;;;;22.02;100.00;99920.88;4950578;28;20146;-81
2022/08/01 01:29:01;;;;;;;21.23;17.40;;;;;;;22.25;100.00;99953.72;4950830;28;20474;-78
2022/08/01 01:31:28;;;;;;;21.90;19.80;;;;;;;22.65;100.00;100015.22;4950387;28;20062;-81
2022/08/01 01:33:57;;;;;;;21.70;19.42;;;;;;;22.37;100.00;99960.50;4934369;29;20055;-82
2022/08/01 01:36:26;;;;;;;20.65;17.63;;;;;;;22.67;100.00;100022.19;4950252;28;20039;-80
2022/08/01 01:38:53;;;;;;;20.55;17.70;;;;;;;22.34;100.00;99957.94;4950330;28;20047;-80
2022/08/01 01:41:20;;;;;;;21.50;18.80;;;;;;;22.58;100.00;100009.22;4934164;29;20058;-81
2022/08/01 01:43:47;;;;;;;22.05;19.75;;;;;;;22.30;100.00;99954.50;4950442;28;20090;-81
2022/08/01 01:46:16;;;;;;;20.90;18.63;;;;;;;22.67;100.00;100005.53;4950226;28;20054;-81
2022/08/01 01:48:44;;;;;;;21.67;19.38;;;;;;;22.70;100.00;100014.22;4934073;29;20039;-81
2022/08/01 01:51:12;;;;;;;21.70;19.52;;;;;;;22.66;100.00;100002.03;4951051;28;20061;-79
2022/08/01 01:53:41;;;;;;;21.25;19.15;;;;;;;22.72;100.00;99994.00;4991627;28;20077;-81
2022/08/01 01:56:08;;;;;;;19.95;17.95;;;;;;;22.61;99.88;99970.56;4991679;28;20125;-81
2022/08/01 01:58:36;;;;;;;21.10;18.85;;;;;;;22.76;99.72;99981.66;4991374;28;20043;-81
2022/08/01 02:01:03;;;;;;;21.23;18.88;;;;;;;22.59;100.00;99998.69;4985447;28;20035;-85
2022/08/01 02:03:30;;;;;;;26.45;18.17;;;;;;;22.26;100.00;99964.22;4970109;28;20034;-81
2022/08/01 02:05:57;;;;;;;20.98;18.88;;;;;;;22.23;100.00;99961.66;4980433;28;20042;-81
2022/08/01 02:08:24;;;;;;;22.38;19.98;;;;;;;22.20;100.00;99956.44;4971916;28;20031;-81
2022/08/01 02:13:39;;;;;;;21.08;18.95;;;;;;;22.41;100.00;99988.53;4975409;28;20125;-80
2022/08/01 02:16:05;;;;;;;21.08;18.92;;;;;;;22.22;100.00;99962.53;4975562;28;20477;-81
2022/08/01 02:18:32;;;;;;;21.48;19.38;;;;;;;22.21;100.00;99962.59;4982417;28;20062;-80
2022/08/01 02:21:00;;;;;;;21.25;19.15;;;;;;;22.24;100.00;99996.69;4981355;28;20054;-81
2022/08/01 02:23:32;;;;;;;22.45;20.35;;;;;;;22.13;100.00;99987.25;4996829;28;20054;-80
2022/08/01 02:26:00;;;;;;;20.77;18.67;;;;;;;22.10;100.00;99989.91;5013756;28;20108;-79
2022/08/01 02:28:30;;;;;;;20.23;18.13;;;;;;;22.22;100.00;99998.47;5013935;28;20064;-82
2022/08/01 02:31:08;;;;;;;20.30;18.30;;;;;;;22.11;100.00;99982.91;4996479;28;20052;-79
2022/08/01 02:33:37;;;;;;;22.27;19.98;;;;;;;22.20;100.00;99982.72;5014075;28;20030;-79
2022/08/01 02:36:05;;;;;;;22.40;20.23;;;;;;;22.12;100.00;99967.09;4996153;28;20037;-79
2022/08/01 02:38:33;;;;;;;23.25;20.73;;;;;;;22.02;100.00;99962.94;5013617;28;20037;-80
2022/08/01 02:41:05;;;;;;;25.70;22.95;;;;;;;21.23;100.00;99848.69;5009861;28;20031;-80
2022/08/01 02:43:33;;;;;;;22.58;20.42;;;;;;;21.90;100.00;99976.28;4994125;28;20034;-80
2022/08/01 02:46:02;;;;;;;23.27;20.77;;;;;;;21.23;100.00;99921.31;4993995;28;20046;-79
2022/08/01 02:48:30;;;;;;;22.43;20.13;;;;;;;21.29;100.00;99986.88;4992804;28;20042;-80
2022/08/01 02:50:59;;;;;;;22.70;19.98;;;;;;;20.94;100.00;99978.59;4994184;28;20113;-79
2022/08/01 02:53:27;;;;;;;21.90;19.60;;;;;;;20.82;100.00;99979.66;4992615;28;20497;-81
2022/08/01 02:55:54;;;;;;;21.65;19.35;;;;;;;20.72;100.00;99980.63;4994161;28;20038;-81
2022/08/01 02:58:23;;;;;;;21.95;19.73;;;;;;;20.79;100.00;99984.06;4994001;28;20038;-80
2022/08/01 03:00:49;;;;;;;22.85;18.70;;;;;;;20.60;100.00;99976.41;4993964;28;20034;-82
2022/08/01 03:03:16;;;;;;;21.17;19.08;;;;;;;20.54;100.00;99971.22;5012888;28;20026;-80
2022/08/01 03:05:44;;;;;;;22.98;19.02;;;;;;;20.50;100.00;99970.38;4995468;28;20041;-81
2022/08/01 03:08:11;;;;;;;21.95;19.58;;;;;;;20.12;100.00;99965.56;5013122;28;20473;-78
2022/08/01 03:10:39;;;;;;;21.52;19.33;;;;;;;19.92;100.00;99984.13;5013515;28;20040;-78
2022/08/01 03:13:08;;;;;;;22.00;19.80;;;;;;;19.70;100.00;99982.53;5004225;28;20042;-78
2022/08/01 03:15:37;;;;;;;22.95;20.50;;;;;;;19.78;100.00;99986.84;5010511;28;20038;-80
2022/08/01 03:18:05;;;;;;;21.90;19.70;;;;;;;19.71;100.00;99971.19;5013019;28;20042;-78
2022/08/01 03:20:32;;;;;;;23.40;19.92;;;;;;;19.57;100.00;99931.13;5012261;28;20504;-81
2022/08/01 03:23:01;;;;;;;22.98;20.33;;;;;;;19.86;100.00;99991.16;5011955;28;20416;-80
2022/08/01 03:25:28;;;;;;;24.23;21.73;;;;;;;19.74;100.00;99967.66;4995247;28;20030;-79
2022/08/01 03:27:56;;;;;;;26.02;23.33;;;;;;;19.83;100.00;99974.59;5012912;28;20053;-79
2022/08/01 03:30:27;;;;;;;28.48;25.67;;;;;;;19.88;100.00;99993.75;4994966;28;20464;-79
2022/08/01 03:32:53;;;;;;;63.58;54.92;;;;;;;19.83;100.00;99996.41;5012358;28;20044;-80
2022/08/01 03:35:19;;;;;;;125.40;106.82;;;;;;;19.79;100.00;99988.53;4994623;28;20038;-81
2022/08/01 03:37:47;;;;;;;57.95;48.50;;;;;;;19.60;100.00;99987.84;5012371;28;20077;-81
2022/08/01 03:40:24;;;;;;;27.92;23.02;;;;;;;19.43;100.00;99999.31;5011161;28;20034;-80
2022/08/01 03:42:57;;;;;;;24.98;21.92;;;;;;;19.22;100.00;99977.63;5012463;28;20037;-79
2022/08/01 03:45:27;;;;;;;23.83;21.23;;;;;;;19.37;100.00;99991.50;5012361;28;20030;-78
2022/08/01 03:47:59;;;;;;;43.42;38.70;;;;;;;19.25;100.00;99955.81;4993751;28;20041;-80
2022/08/01 03:50:25;;;;;;;24.38;20.63;;;;;;;18.86;100.00;99931.63;4994518;28;20038;-79
2022/08/01 03:52:51;;;;;;;19.58;17.48;;;;;;;18.84;100.00;99942.09;4995654;28;20042;-79
2022/08/01 03:55:20;;;;;;;22.48;20.02;;;;;;;18.88;100.00;99935.09;4992229;28;20049;-78
2022/08/01 03:57:47;;;;;;;66.95;46.42;;;;;;;19.15;100.00;99965.50;4992460;28;20151;-80
2022/08/01 04:00:18;;;;;;;22.02;19.63;;;;;;;19.36;100.00;99985.38;4974502;28;20096;-78
2022/08/01 04:02:45;;;;;;;53.17;46.25;;;;;;;19.43;100.00;99987.97;4992424;28;20034;-78
2022/08/01 04:05:11;;;;;;;22.83;20.60;;;;;;;19.45;100.00;99973.13;4992487;28;20485;-78
2022/08/01 04:07:38;;;;;;;37.47;33.70;;;;;;;19.43;100.00;99981.00;4992454;28;20130;-76
2022/08/01 04:10:05;;;;;;;20.20;17.98;;;;;;;19.37;100.00;99994.97;4991891;28;20043;-78
2022/08/01 04:12:30;;;;;;;19.60;17.50;;;;;;;19.28;100.00;99997.66;4974862;28;20034;-77
2022/08/01 04:14:56;;;;;;;18.88;16.98;;;;;;;19.12;100.00;99988.19;4974577;28;20101;-76
2022/08/01 04:17:21;;;;;;;18.85;16.95;;;;;;;19.17;100.00;99984.66;4992273;28;20038;-77
2022/08/01 04:19:47;;;;;;;19.73;17.60;;;;;;;19.26;100.00;99993.31;4992218;28;20042;-79
2022/08/01 04:22:14;;;;;;;19.55;17.52;;;;;;;19.04;100.00;99982.97;4991839;28;20053;-78
2022/08/01 04:24:48;;;;;;;19.67;17.75;;;;;;;18.85;100.00;99946.41;4991596;28;20647;-78
2022/08/01 04:27:17;;;;;;;19.77;17.75;;;;;;;19.35;100.00;99998.50;4973292;28;20042;-78
2022/08/01 04:29:44;;;;;;;17.63;15.88;;;;;;;19.25;100.00;99987.22;4992111;28;20049;-78
2022/08/01 04:32:12;;;;;;;16.63;14.93;;;;;;;19.37;100.00;100001.97;4991707;28;20038;-79
2022/08/01 04:34:41;;;;;;;17.17;15.40;;;;;;;19.49;100.00;100020.22;4974183;28;20405;-78
2022/08/01 04:37:09;;;;;;;17.42;15.63;;;;;;;19.66;100.00;100016.59;4991819;28;20464;-78
2022/08/01 04:39:38;;;;;;;16.95;14.80;;;;;;;19.65;100.00;100015.75;4991837;28;20500;-78
2022/08/01 04:42:06;;;;;;;17.03;15.20;;;;;;;19.63;100.00;99988.69;4991806;28;20074;-77
2022/08/01 04:44:33;;;;;;;15.15;13.65;;;;;;;19.70;100.00;99989.50;4991636;28;20299;-78
2022/08/01 04:47:02;;;;;;;14.80;13.15;;;;;;;19.81;100.00;100006.00;4996622;28;20030;-82
2022/08/01 04:49:29;;;;;;;;;;;;;;;19.69;100.00;100011.34;5007677;28;20400;-79
2022/08/01 04:51:59;;;;;;;11.70;10.50;;;;;;;19.66;100.00;100001.75;5010846;28;19932;-79
2022/08/01 04:54:27;;;;;;;12.60;10.68;;;;;;;19.65;100.00;99994.78;4995894;28;20526;-77
2022/08/01 04:57:00;;;;;;;10.88;9.60;;;;;;;19.87;100.00;100010.34;4991277;28;20477;-78
2022/08/01 04:59:39;;;;;;;10.10;9.02;;;;;;;19.98;99.33;100005.03;4989980;28;20042;-79
2022/08/01 05:02:05;;;;;;;9.60;8.50;;;;;;;20.11;98.05;100008.38;4991549;28;20043;-79
2022/08/01 05:04:31;;;;;;;12.20;9.55;;;;;;;20.12;96.90;100000.50;4991190;28;20136;-80
2022/08/01 05:06:56;;;;;;;9.25;7.13;;;;;;;20.20;94.38;99992.59;4991541;28;20520;-78
2022/08/01 05:09:22;;;;;;;10.07;7.97;;;;;;;20.41;95.88;100001.97;4991441;28;20030;-78
2022/08/01 05:11:47;;;;;;;8.70;7.78;;;;;;;20.47;94.46;100003.63;4991406;28;20038;-79
2022/08/01 05:14:13;;;;;;;11.40;7.43;;;;;;;20.45;94.34;100005.41;4991425;28;20485;-79
2022/08/01 05:16:38;;;;;;;8.32;7.53;;;;;;;20.42;95.22;100008.94;4991212;28;20039;-78
2022/08/01 05:19:04;;;;;;;9.27;8.38;;;;;;;20.55;96.01;100008.78;4990759;28;20046;-81
2022/08/01 05:21:29;;;;;;;9.82;8.85;;;;;;;20.42;97.24;99995.81;4990963;28;20042;-81
2022/08/01 05:23:54;;;;;;;10.02;9.02;;;;;;;20.48;96.38;99993.13;4991087;28;20038;-80
2022/08/01 05:26:20;;;;;;;10.82;9.82;;;;;;;20.62;98.33;100007.84;4990779;28;20386;-81
2022/08/01 05:28:45;;;;;;;13.52;8.68;;;;;;;20.47;95.82;99980.94;4991215;28;20037;-79
2022/08/01 05:31:11;;;;;;;11.73;9.70;;;;;;;20.45;96.38;99968.69;4991124;28;20116;-80
2022/08/01 05:33:36;;;;;;;10.23;8.50;;;;;;;20.09;93.91;99905.31;4990881;28;20061;-81
2022/08/01 05:36:02;;;;;;;10.57;9.57;;;;;;;20.73;96.51;99998.13;4990954;28;20791;-78
2022/08/01 05:38:27;;;;;;;9.13;8.23;;;;;;;20.87;93.79;100008.44;4990921;28;20053;-79
2022/08/01 05:40:53;;;;;;;10.20;8.68;;;;;;;20.79;95.00;99963.06;4991145;28;20042;-79
2022/08/01 05:43:18;;;;;;;12.00;8.27;;;;;;;20.93;93.66;99978.63;4991076;28;20041;-79
2022/08/01 05:45:45;;;;;;;9.57;7.32;;;;;;;20.82;91.74;99957.78;4993512;28;20034;-79
2022/08/01 05:48:11;;;;;;;9.00;8.13;;;;;;;21.11;92.38;99991.50;5000338;28;20120;-81
2022/08/01 05:50:36;;;;;;;10.25;8.85;;;;;;;21.36;93.10;100006.00;5014333;28;20130;-81
2022/08/01 05:53:02;;;;;;;9.93;6.72;;;;;;;21.53;90.47;100013.63;5014557;28;20026;-81
2022/08/01 05:55:27;;;;;;;8.88;6.90;;;;;;;21.68;88.99;100012.56;5014358;28;20030;-80
2022/08/01 05:57:53;;;;;;;9.25;7.70;;;;;;;21.79;90.17;100010.63;5013982;28;20041;-80
2022/08/01 06:00:18;;;;;;;8.38;7.57;;;;;;;21.80;88.25;100017.63;5013936;28;20038;-80
2022/08/01 06:02:45;;;;;;;8.50;7.60;;;;;;;21.77;89.45;100001.88;5014184;28;20033;-80
2022/08/01 06:05:10;;;;;;;6.75;5.45;;;;;;;21.79;84.67;100011.50;5014248;28;20038;-80
2022/08/01 06:07:36;;;;;;;8.00;6.22;;;;;;;21.90;85.45;100008.69;5014300;28;20080;-81
2022/08/01 06:10:02;;;;;;;6.53;5.93;;;;;;;21.87;84.71;100000.88;4978890;28;20046;-81
2022/08/01 06:12:27;;;;;;;6.97;5.68;;;;;;;21.71;83.91;99957.31;5014358;28;20036;-81
2022/08/01 06:14:53;;;;;;;6.68;6.07;;;;;;;22.18;85.38;100008.22;5013645;28;20049;-81
2022/08/01 06:17:18;;;;;;;6.85;5.82;;;;;;;22.41;82.42;100013.03;5013901;28;20042;-81
2022/08/01 06:19:43;;;;;;;6.80;5.38;;;;;;;22.29;80.17;100005.34;5013897;28;20045;-81
2022/08/01 06:22:09;;;;;;;9.25;5.07;;;;;;;22.33;80.39;100009.69;5013404;28;20049;-81
2022/08/01 06:24:36;;;;;;;5.18;4.40;;;;;;;22.36;78.39;100001.72;4972062;28;20042;-81
2022/08/01 06:27:02;;;;;;;5.43;4.85;;;;;;;22.49;78.11;100002.38;4972105;28;20078;-84
2022/08/01 06:29:31;;;;;;;6.60;4.75;;;;;;;21.76;78.87;99869.66;4972054;28;20544;-82
2022/08/01 06:31:56;;;;;;;5.53;4.63;;;;;;;22.44;80.25;99986.69;4971700;28;20104;-82
2022/08/01 06:34:22;;;;;;;6.55;4.88;;;;;;;22.59;80.11;100001.31;4972186;28;20472;-82
2022/08/01 06:36:48;;;;;;;8.65;5.20;;;;;;;22.47;76.84;99977.88;4972023;28;20486;-81
2022/08/01 06:39:13;;;;;;;6.00;4.43;;;;;;;22.34;79.00;99936.91;4972050;28;20101;-81
2022/08/01 06:41:41;;;;;;;9.35;5.00;;;;;;;22.74;78.09;99986.09;4972124;28;20050;-81
2022/08/01 06:44:07;;;;;;;5.35;4.65;;;;;;;22.86;77.18;99987.59;4971688;28;20043;-81
2022/08/01 06:46:33;;;;;;;7.18;4.22;;;;;;;22.93;75.64;99984.78;4971400;28;20039;-75
2022/08/01 06:48:58;;;;;;;5.80;4.97;;;;;;;23.01;77.07;99968.81;4971302;28;20042;-82
2022/08/01 06:51:24;;;;;;;4.70;4.20;;;;;;;22.96;75.56;99943.53;4971386;28;20118;-81
2022/08/01 06:53:49;;;;;;;6.07;4.90;;;;;;;22.96;75.70;99922.47;4971295;28;20510;-83
2022/08/01 06:56:14;;;;;;;5.55;4.30;;;;;;;23.32;74.60;99964.66;5003698;28;20046;-82
2022/08/01 06:58:40;;;;;;;7.10;4.70;;;;;;;23.54;75.34;99971.13;5012766;28;20105;-82
2022/08/01 07:01:06;;;;;;;4.13;3.33;;;;;;;23.58;68.14;99958.75;5009950;28;20139;-83
2022/08/01 07:03:32;;;;;;;4.60;4.10;;;;;;;23.42;69.42;99953.00;5010399;28;20065;-78
2022/08/01 07:05:58;;;;;;;6.40;4.15;;;;;;;23.36;71.66;99932.94;5010509;28;20589;-81
2022/08/01 07:08:23;;;;;;;6.00;3.90;;;;;;;23.71;72.05;99964.56;5010547;28;20064;-82
2022/08/01 07:10:49;;;;;;;5.15;3.95;;;;;;;23.79;69.54;99959.09;4993879;28;20069;-83
2022/08/01 07:13:20;;;;;;;6.20;3.88;;;;;;;23.48;68.66;99907.19;5010337;28;20038;-82
2022/08/01 07:15:46;;;;;;;5.53;4.90;;;;;;;23.74;71.37;99935.53;4994070;28;20543;-82
2022/08/01 07:18:12;;;;;;;4.28;3.17;;;;;;;23.86;66.48;99952.75;4993992;28;20069;-82
2022/08/01 07:20:37;;;;;;;10.65;9.02;;;;;;;23.89;69.54;99950.91;4993774;28;20211;-88
2022/08/01 07:23:03;;;;;;;9.35;5.53;;;;;;;23.90;69.78;99912.22;4993954;28;20081;-82
2022/08/01 07:25:30;;;;;;;6.57;5.40;;;;;;;24.12;67.98;99948.59;5010470;28;20041;-81
2022/08/01 07:27:56;;;;;;;6.55;3.88;;;;;;;24.07;67.69;99930.25;5010148;28;20034;-83
2022/08/01 07:30:23;;;;;;;6.07;4.00;;;;;;;24.27;68.87;99944.69;5010234;28;20566;-82
2022/08/01 07:32:49;;;;;;;6.00;4.72;;;;;;;24.28;71.11;99938.50;4994827;28;20041;-82
2022/08/01 07:35:14;;;;;;;5.00;4.10;;;;;;;24.32;67.41;99927.78;5011535;28;20471;-83
2022/08/01 07:37:40;;;;;;;7.10;4.22;;;;;;;24.19;63.14;99903.53;4995106;28;20037;-83
2022/08/01 07:40:06;;;;;;;5.63;3.60;;;;;;;24.55;62.78;99935.03;5012767;28;20046;-83
2022/08/01 07:42:32;;;;;;;6.53;4.10;;;;;;;24.66;62.69;99939.16;5012649;28;20077;-82
2022/08/01 07:44:57;;;;;;;5.57;3.90;;;;;;;24.54;62.36;99908.72;4994997;28;20484;-83
2022/08/01 07:47:26;;;;;;;4.97;2.95;;;;;;;24.84;61.32;99943.03;5012431;28;20105;-84
2022/08/01 07:49:58;;;;;;;8.65;3.70;;;;;;;24.89;64.98;99943.75;5012670;28;20433;-82
2022/08/01 07:52:24;;;;;;;7.18;3.13;;;;;;;24.92;60.22;99945.44;5012441;28;20099;-82
2022/08/01 07:54:49;;;;;;;4.78;3.42;;;;;;;24.99;63.01;99932.00;4977516;28;20038;-82
2022/08/01 07:57:15;;;;;;;4.30;3.50;;;;;;;24.91;59.52;99927.88;5012267;28;20038;-85
2022/08/01 07:59:40;;;;;;;4.22;3.08;;;;;;;24.83;58.28;99909.63;5012315;28;20125;-83
2022/08/01 08:02:05;;;;;;;9.95;3.33;;;;;;;24.86;58.36;99888.41;5012281;28;20112;-82
2022/08/01 08:04:31;;;;;;;4.60;2.97;;;;;;;24.83;56.39;99885.88;5012647;28;20141;-86
2022/08/01 08:06:56;;;;;;;14.13;5.72;;;;;;;25.12;56.66;99911.34;5011581;28;20077;-82
2022/08/01 08:09:22;;;;;;;3.50;2.80;;;;;;;25.12;54.52;99899.91;5011818;28;20033;-82
2022/08/01 08:11:48;;;;;;;4.95;2.47;;;;;;;25.49;52.18;99941.00;5012088;28;20117;-83
2022/08/01 08:14:14;;;;;;;5.63;3.10;;;;;;;25.45;51.52;99929.66;5012290;28;20037;-81
2022/08/01 08:16:40;;;;;;;6.93;3.08;;;;;;;25.64;52.27;99940.47;5012211;28;20042;-81
2022/08/01 08:19:05;;;;;;;3.47;2.70;;;;;;;25.68;50.88;99920.09;4994110;28;20115;-82
2022/08/01 08:21:31;;;;;;;3.50;2.30;;;;;;;25.90;52.00;99930.78;5011623;28;20107;-82
2022/08/01 08:26:42;;;;;;;3.08;2.13;;;;;;;25.98;49.04;99927.88;5011911;28;20169;-83
2022/08/01 08:29:07;;;;;;;3.75;2.10;;;;;;;25.91;48.12;99908.72;4994152;28;20070;-83
2022/08/01 08:31:32;;;;;;;3.13;2.17;;;;;;;25.98;46.99;99894.34;5010442;28;20125;-83
2022/08/01 08:33:58;;;;;;;2.97;2.17;;;;;;;26.20;44.26;99937.72;5011892;28;20061;-83
2022/08/01 08:36:24;;;;;;;3.83;2.00;;;;;;;26.20;44.81;99928.00;5012065;28;20038;-82
2022/08/01 08:38:49;;;;;;;3.80;1.98;;;;;;;26.27;44.91;99929.50;4993744;28;20071;-82
2022/08/01 08:41:15;;;;;;;3.15;2.35;;;;;;;26.26;44.85;99905.75;5011445;28;20096;-83
2022/08/01 08:43:40;;;;;;;5.72;2.17;;;;;;;26.50;46.04;99909.22;5011610;28;20034;-84
2022/08/01 08:46:08;;;;;;;3.45;2.40;;;;;;;26.53;45.17;99890.59;5011652;28;20117;-83
2022/08/01 08:48:36;;;;;;;4.15;2.30;;;;;;;26.73;45.71;99926.00;4993604;28;20034;-82
2022/08/01 08:51:22;;;;;;;4.28;2.13;;;;;;;26.57;45.92;99905.44;5011268;28;20180;-83
2022/08/01 08:53:47;;;;;;;4.95;2.45;;;;;;;26.64;46.70;99912.22;4972317;28;20069;-84
2022/08/01 08:56:13;;;;;;;7.05;3.30;;;;;;;26.63;46.68;99857.53;4989052;28;20085;-85
2022/08/01 08:58:45;;;;;;;4.03;2.63;;;;;;;26.62;44.62;99849.66;4989053;28;20039;-84
2022/08/01 09:01:12;;;;;;;7.13;3.30;;;;;;;26.87;48.00;99883.16;4972669;28;20517;-84
2022/08/01 09:03:38;;;;;;;5.60;3.30;;;;;;;27.13;44.91;99898.84;4988708;28;20077;-85
2022/08/01 09:06:03;;;;;;;3.90;2.63;;;;;;;27.08;45.29;99876.13;4950195;29;20043;-84
2022/08/01 09:08:29;;;;;;;4.75;2.50;;;;;;;27.18;46.14;99893.34;4934414;29;20795;-85
2022/08/01 09:10:56;;;;;;;6.30;3.63;;;;;;;27.13;44.05;99882.09;4892974;29;20044;-88
2022/08/01 09:13:21;;;;;;;4.13;2.05;;;;;;;27.07;44.60;99863.78;4877585;29;20202;-87
2022/08/01 09:15:59;;;;;;;5.53;2.42;;;;;;;27.36;44.45;99899.66;4877572;29;20037;-86
2022/08/01 09:18:33;;;;;;;3.88;2.67;;;;;;;27.32;41.99;99876.03;4877264;29;20051;-83
2022/08/01 09:21:14;;;;;;;5.25;1.95;;;;;;;27.41;41.46;99899.50;4884847;29;20604;-84
2022/08/01 09:23:48;;;;;;;6.07;2.47;;;;;;;27.43;42.58;99885.25;4893351;29;20116;-84
2022/08/01 09:26:18;;;;;;;4.43;2.20;;;;;;;27.32;41.88;99878.66;4899622;29;20105;-85
2022/08/01 09:28:47;;;;;;;6.63;2.22;;;;;;;27.56;40.93;99885.59;4890949;29;20064;-82
2022/08/01 09:31:18;;;;;;;2.75;2.03;;;;;;;27.44;41.04;99884.34;4893515;29;20040;-82
2022/08/01 09:33:55;;;;;;;2.72;1.88;;;;;;;27.50;42.58;99874.38;4902665;29;20048;-81
2022/08/01 09:36:27;;;;;;;4.70;2.08;;;;;;;27.80;41.98;99866.88;4919355;29;20046;-85
2022/08/01 09:38:54;;;;;;;6.63;2.53;;;;;;;27.31;42.18;99798.28;4944633;29;20138;-80
2022/08/01 09:41:32;;;;;;;5.55;2.50;;;;;;;27.47;40.90;99808.25;4946219;28;20104;-82
2022/08/01 09:43:59;;;;;;;4.57;2.50;;;;;;;27.92;40.94;99881.41;5007044;28;20120;-83
2022/08/01 09:46:25;;;;;;;2.65;2.13;;;;;;;27.75;41.27;99842.34;5010651;28;20469;-84
2022/08/01 09:49:06;;;;;;;3.20;2.40;;;;;;;28.27;44.83;99860.38;5009374;28;20125;-81
2022/08/01 09:51:33;;;;;;;3.70;2.15;;;;;;;28.39;42.57;99866.94;5007388;28;20026;-84
2022/08/01 09:53:59;;;;;;;2.92;1.90;;;;;;;27.54;40.28;99812.34;5006888;28;20042;-80
2022/08/01 09:56:25;;;;;;;5.07;2.00;;;;;;;28.37;39.01;99866.97;4992870;28;20030;-87
2022/08/01 09:58:58;;;;;;;3.25;2.00;;;;;;;28.47;39.46;99878.03;5010667;28;20061;-87
2022/08/01 10:01:25;;;;;;;4.00;2.00;;;;;;;28.07;40.17;99826.81;5010603;28;20038;-79
2022/08/01 10:04:14;;;;;;;2.63;1.92;;;;;;;28.62;39.41;99854.34;4985907;28;20054;-76
2022/08/01 10:06:44;;;;;;;4.13;3.10;;;;;;;28.93;40.33;99868.81;4987270;28;20089;-79
2022/08/01 10:09:13;;;;;;;6.68;3.35;;;;;;;29.17;39.58;99869.38;4985809;28;20117;-81
2022/08/01 10:11:41;;;;;;;4.47;2.30;;;;;;;29.21;37.42;99863.84;4987017;28;20035;-77
2022/08/01 10:14:08;;;;;;;4.95;1.85;;;;;;;28.66;38.66;99859.44;4987768;28;20116;-80
2022/08/01 10:16:35;;;;;;;6.65;3.75;;;;;;;28.92;39.73;99862.63;4985981;28;20448;-78
2022/08/01 10:19:05;;;;;;;5.43;3.50;;;;;;;29.33;43.06;99859.72;4987328;28;20042;-79
2022/08/01 10:21:32;;;;;;;8.65;3.42;;;;;;;29.61;41.17;99874.28;4986964;28;20070;-79
2022/08/01 10:23:59;;;;;;;2.83;1.88;;;;;;;28.94;38.47;99836.00;4984983;28;20046;-76
2022/08/01 10:26:26;;;;;;;5.28;1.95;;;;;;;29.25;36.69;99861.03;4987523;28;20041;-77
2022/08/01 10:28:53;;;;;;;4.13;1.83;;;;;;;29.58;36.51;99866.44;4958623;28;20038;-73
2022/08/01 10:31:19;;;;;;;3.80;1.90;;;;;;;29.62;37.30;99843.22;4986348;28;20050;-74
2022/08/01 10:33:45;;;;;;;6.68;2.22;;;;;;;29.96;37.78;99854.78;4991197;28;20570;-74
2022/08/01 10:36:10;;;;;;;6.53;2.20;;;;;;;30.24;38.59;99845.28;4987914;28;20117;-74
2022/08/01 10:38:36;;;;;;;4.10;2.20;;;;;;;30.37;39.66;99843.66;4990644;28;20138;-78
2022/08/01 10:41:04;;;;;;;2.45;1.73;;;;;;;30.30;35.04;99850.25;4982449;28;20124;-73
2022/08/01 10:43:29;;;;;;;3.55;2.17;;;;;;;30.17;36.05;99837.63;5000792;28;20508;-75
2022/08/01 10:45:55;;;;;;;2.00;1.80;;;;;;;30.35;34.82;99832.22;5003472;28;20038;-73
2022/08/01 10:48:27;;;;;;;3.13;1.70;;;;;;;30.59;36.71;99848.63;5003763;28;20481;-77
2022/08/01 10:50:57;;;;;;;3.10;1.80;;;;;;;29.66;35.34;99807.53;5010761;28;20034;-72
2022/08/01 10:53:25;;;;;;;3.80;1.90;;;;;;;29.66;34.97;99847.44;5012445;28;20052;-78
2022/08/01 10:55:56;;;;;;;4.05;1.92;;;;;;;29.67;39.84;99796.81;5012706;28;20038;-78
2022/08/01 10:58:28;;;;;;;3.50;2.20;;;;;;;30.16;38.11;99811.09;5012218;28;20135;-79
2022/08/01 11:01:26;;;;;;;4.45;1.60;;;;;;;30.28;34.10;99838.81;4994454;28;20057;-75
2022/08/01 11:03:55;;;;;;;2.95;1.90;;;;;;;30.53;35.58;99837.47;5011500;28;20073;-76
2022/08/01 11:06:25;;;;;;;3.85;1.60;;;;;;;30.71;36.32;99801.81;5010882;28;20092;-74
2022/08/01 11:08:54;;;;;;;2.60;1.70;;;;;;;30.60;32.80;99844.19;4948965;28;20049;-76
2022/08/01 11:11:23;;;;;;;2.15;1.50;;;;;;;31.05;32.35;99833.63;5007475;28;20062;-76
2022/08/01 11:14:01;;;;;;;3.63;1.80;;;;;;;30.95;32.57;99826.16;5007350;28;20412;-75
2022/08/01 11:16:35;;;;;;;4.18;1.90;;;;;;;30.70;34.29;99828.53;5007560;28;20046;-76
2022/08/01 11:19:04;;;;;;;2.97;1.92;;;;;;;30.88;36.15;99822.16;5007045;28;20471;-77
2022/08/01 11:22:03;;;;;;;3.67;1.90;;;;;;;31.21;33.35;99817.63;5007519;28;20048;-76
2022/08/01 11:24:56;;;;;;;;;;;;;;;31.05;33.88;99822.97;5007926;28;20475;-73
2022/08/01 11:27:32;;;;;;;4.80;1.90;;;;;;;31.06;34.83;99819.34;4925652;29;19997;-80
2022/08/01 11:30:11;;;;;;;2.40;1.73;;;;;;;31.05;34.85;99821.13;4930545;29;20058;-76
2022/08/01 11:32:57;;;;;;;4.20;1.80;;;;;;;30.75;35.31;99821.97;4930767;29;20055;-82
2022/08/01 11:35:24;;;;;;;2.58;1.80;;;;;;;30.32;34.91;99782.66;4930596;29;20040;-78